Time;durP1;ratioP1;P1;durP2;ratioP2;P2;SDS_P1;SDS_P2;PMS_P1;PMS_P2;Temp;Humidity;BMP_temperature;BMP_pressure;BME280_temperature;BME280_humidity;BME280_pressure;Samples;Min_cycle;Max_cycle;Signal;HPM_P1;HPM_P2
2022/07/03 00:01:23;;;;;;;0.30;0.30;;;15.70;2.20;;;;;;5065060;28;20183;-77
2022/07/03 00:03:49;;;;;;;0.30;0.30;;;15.70;12.60;;;;;;5061360;28;20183;-78
2022/07/03 00:06:15;;;;;;;0.30;0.30;;;15.60;20.40;;;;;;5060009;28;20181;-78
2022/07/03 00:08:40;;;;;;;0.47;0.47;;;15.50;18.00;;;;;;5063033;28;20258;-77
2022/07/03 00:11:06;;;;;;;0.30;0.30;;;15.50;28.80;;;;;;5059944;28;20167;-79
2022/07/03 00:13:32;;;;;;;0.30;0.30;;;15.40;48.10;;;;;;5059655;28;20202;-79
2022/07/03 00:15:58;;;;;;;0.30;0.30;;;15.40;62.00;;;;;;5059808;28;20171;-78
2022/07/03 00:18:23;;;;;;;0.30;0.30;;;15.40;54.20;;;;;;5052380;28;20207;-78
2022/07/03 00:20:54;;;;;;;0.30;0.30;;;15.40;64.20;;;;;;5043508;28;20194;-77
2022/07/03 00:23:22;;;;;;;0.37;0.37;;;15.40;59.90;;;;;;5051214;28;20199;-78
2022/07/03 00:25:49;;;;;;;0.40;0.40;;;15.30;67.90;;;;;;5052384;28;20190;-78
2022/07/03 00:28:15;;;;;;;0.30;0.30;;;15.30;63.30;;;;;;5048131;28;20199;-78
2022/07/03 00:30:45;;;;;;;0.40;0.40;;;15.30;85.50;;;;;;5047621;28;20187;-79
2022/07/03 00:33:11;;;;;;;0.50;0.50;;;15.30;90.20;;;;;;5048416;28;20203;-78
2022/07/03 00:35:39;;;;;;;0.40;0.40;;;15.30;73.90;;;;;;5048827;28;20233;-78
2022/07/03 00:38:04;;;;;;;0.30;0.30;;;15.30;60.80;;;;;;5056659;28;20636;-76
2022/07/03 00:40:30;;;;;;;0.30;0.30;;;15.20;66.60;;;;;;5053018;28;20167;-77
2022/07/03 00:42:59;;;;;;;0.33;0.33;;;15.20;94.90;;;;;;5047623;28;20210;-77
2022/07/03 00:45:26;;;;;;;0.30;0.30;;;15.10;99.90;;;;;;5045722;28;20179;-77
2022/07/03 00:47:53;;;;;;;0.40;0.40;;;15.10;99.90;;;;;;5051141;28;20287;-77
2022/07/03 00:50:25;;;;;;;0.30;0.30;;;15.10;99.90;;;;;;5049388;28;20182;-77
2022/07/03 00:52:54;;;;;;;0.30;0.30;;;15.10;99.90;;;;;;5049971;28;20198;-79
2022/07/03 00:55:26;;;;;;;0.33;0.33;;;15.10;99.90;;;;;;5047047;28;20186;-77
2022/07/03 00:57:54;;;;;;;0.40;0.40;;;15.10;99.90;;;;;;5052973;28;20203;-77
2022/07/03 01:00:20;;;;;;;0.30;0.30;;;15.00;99.90;;;;;;5040149;28;20254;-74
2022/07/03 01:02:55;;;;;;;0.40;0.40;;;15.00;99.90;;;;;;5052954;28;20299;-75
2022/07/03 01:05:51;;;;;;;0.40;0.40;;;14.90;99.90;;;;;;5046288;28;20179;-76
2022/07/03 01:08:34;;;;;;;0.30;0.30;;;14.90;99.90;;;;;;5047711;28;20191;-77
2022/07/03 01:11:23;;;;;;;0.30;0.30;;;14.90;99.90;;;;;;5052373;28;20175;-76
2022/07/03 01:13:57;;;;;;;0.30;0.30;;;14.90;98.20;;;;;;5055447;28;20554;-77
2022/07/03 01:16:36;;;;;;;0.40;0.40;;;14.90;91.70;;;;;;5042300;28;20170;-77
2022/07/03 01:19:10;;;;;;;0.40;0.40;;;14.90;79.50;;;;;;5039071;28;20750;-77
2022/07/03 01:21:42;;;;;;;0.40;0.40;;;14.80;95.10;;;;;;5044418;28;20198;-77
2022/07/03 01:24:30;;;;;;;0.40;0.40;;;14.90;99.90;;;;;;5043812;28;20172;-76
2022/07/03 01:27:03;;;;;;;0.40;0.40;;;14.80;99.90;;;;;;5028468;28;20172;-77
2022/07/03 01:29:46;;;;;;;0.40;0.40;;;14.70;99.90;;;;;;5045758;28;20196;-78
2022/07/03 01:32:14;;;;;;;0.40;0.40;;;14.70;99.90;;;;;;5048832;28;20602;-77
2022/07/03 01:34:44;;;;;;;0.50;0.50;;;14.60;99.90;;;;;;5040531;28;20179;-77
2022/07/03 01:37:14;;;;;;;0.30;0.30;;;14.60;99.90;;;;;;5036816;28;20172;-76
2022/07/03 01:39:44;;;;;;;0.40;0.40;;;14.60;99.90;;;;;;5036979;28;20192;-77
2022/07/03 01:42:11;;;;;;;0.40;0.40;;;14.60;99.90;;;;;;5038594;28;20218;-78
2022/07/03 01:44:39;;;;;;;0.40;0.40;;;14.60;99.90;;;;;;5039337;28;20200;-78
2022/07/03 01:47:05;;;;;;;0.50;0.50;;;14.60;99.90;;;;;;5036578;28;20599;-77
2022/07/03 01:49:32;;;;;;;0.50;0.50;;;14.50;99.90;;;;;;5034552;28;20219;-77
2022/07/03 01:51:59;;;;;;;0.30;0.30;;;14.50;99.90;;;;;;5034858;28;20192;-77
2022/07/03 01:54:26;;;;;;;0.40;0.40;;;14.40;99.90;;;;;;5034648;28;20687;-77
2022/07/03 01:56:53;;;;;;;0.40;0.40;;;14.40;99.90;;;;;;5034282;28;20247;-76
2022/07/03 01:59:18;;;;;;;0.30;0.30;;;14.40;99.90;;;;;;5034110;28;20211;-77
2022/07/03 02:02:13;;;;;;;0.33;0.33;;;14.40;99.90;;;;;;5036641;28;20283;-77
2022/07/03 02:04:59;;;;;;;0.40;0.40;;;14.40;99.90;;;;;;5036754;28;20184;-77
2022/07/03 02:07:41;;;;;;;0.40;0.40;;;14.40;99.90;;;;;;5036452;28;20625;-75
2022/07/03 02:10:08;;;;;;;0.40;0.40;;;14.30;99.90;;;;;;5035639;28;20179;-76
2022/07/03 02:12:40;;;;;;;0.37;0.37;;;14.30;99.90;;;;;;5034524;28;20203;-77
2022/07/03 02:15:08;;;;;;;0.40;0.40;;;14.30;99.90;;;;;;5033966;28;20198;-77
2022/07/03 02:17:47;;;;;;;0.40;0.40;;;14.30;99.90;;;;;;5033754;28;20206;-79
2022/07/03 02:20:16;;;;;;;0.40;0.40;;;14.30;99.90;;;;;;5033363;28;20175;-77
2022/07/03 02:22:46;;;;;;;0.37;0.37;;;14.30;99.90;;;;;;5033628;28;20198;-76
2022/07/03 02:25:27;;;;;;;0.40;0.40;;;14.30;99.90;;;;;;5033823;28;20172;-77
2022/07/03 02:28:04;;;;;;;0.30;0.30;;;14.30;99.90;;;;;;5033650;28;20186;-77
2022/07/03 02:30:29;;;;;;;0.30;0.30;;;14.30;99.90;;;;;;5033603;28;20180;-77
2022/07/03 02:32:58;;;;;;;0.30;0.30;;;14.20;99.90;;;;;;5033726;28;20676;-78
2022/07/03 02:35:31;;;;;;;0.30;0.30;;;14.10;99.90;;;;;;5033218;28;20167;-77
2022/07/03 02:38:04;;;;;;;0.40;0.40;;;14.00;99.90;;;;;;5032940;28;20214;-76
2022/07/03 02:40:36;;;;;;;0.40;0.40;;;14.00;99.90;;;;;;5032442;28;20180;-77
2022/07/03 02:43:10;;;;;;;0.30;0.30;;;14.00;99.90;;;;;;5032980;28;20199;-77
2022/07/03 02:45:47;;;;;;;0.40;0.40;;;14.00;99.90;;;;;;5032609;28;20673;-77
2022/07/03 02:48:23;;;;;;;0.30;0.30;;;14.00;99.90;;;;;;5032907;28;20176;-77
2022/07/03 02:50:52;;;;;;;0.40;0.40;;;14.00;99.90;;;;;;5032268;28;20171;-76
2022/07/03 02:53:26;;;;;;;0.40;0.40;;;14.10;99.90;;;;;;5035770;28;20246;-78
2022/07/03 02:56:14;;;;;;;0.30;0.30;;;14.00;99.90;;;;;;5039028;28;20259;-78
2022/07/03 02:59:03;;;;;;;0.30;0.30;;;14.00;99.90;;;;;;5039815;28;20215;-78
2022/07/03 03:01:54;;;;;;;0.37;0.37;;;14.00;99.90;;;;;;5038570;28;20171;-77
2022/07/03 03:04:32;;;;;;;0.30;0.30;;;14.00;99.90;;;;;;5038132;28;20291;-79
2022/07/03 03:07:10;;;;;;;0.40;0.40;;;13.90;99.90;;;;;;5032578;28;20182;-77
2022/07/03 03:09:45;;;;;;;0.40;0.40;;;13.90;99.90;;;;;;5031751;28;20179;-77
2022/07/03 03:12:12;;;;;;;0.40;0.40;;;13.90;99.90;;;;;;5032507;28;20191;-77
2022/07/03 03:14:40;;;;;;;0.40;0.40;;;13.90;99.90;;;;;;5032484;28;20183;-77
2022/07/03 03:17:07;;;;;;;0.47;0.47;;;13.90;99.90;;;;;;5033430;28;20208;-76
2022/07/03 03:19:39;;;;;;;0.40;0.40;;;13.80;99.90;;;;;;5033904;28;20220;-76
2022/07/03 03:22:23;;;;;;;0.30;0.30;;;13.80;99.90;;;;;;5034437;28;20278;-76
2022/07/03 03:24:49;;;;;;;0.30;0.30;;;13.80;99.90;;;;;;5033998;28;20172;-77
2022/07/03 03:27:15;;;;;;;0.40;0.40;;;13.70;99.90;;;;;;5032498;28;20272;-77
2022/07/03 03:29:41;;;;;;;0.40;0.40;;;13.80;99.90;;;;;;5070886;23;20235;-83
2022/07/03 03:32:07;;;;;;;0.40;0.40;;;13.70;99.90;;;;;;5034165;28;20199;-82
2022/07/03 03:34:33;;;;;;;0.40;0.40;;;13.70;99.90;;;;;;5034534;28;20184;-83
2022/07/03 03:36:59;;;;;;;0.40;0.40;;;13.70;99.90;;;;;;5034714;28;20182;-82
2022/07/03 03:39:25;;;;;;;0.40;0.40;;;13.70;99.90;;;;;;5034482;28;20307;-82
2022/07/03 03:41:52;;;;;;;0.33;0.33;;;13.70;99.90;;;;;;5034146;28;20565;-82
2022/07/03 03:44:17;;;;;;;0.40;0.40;;;13.70;99.90;;;;;;5037323;28;20176;-82
2022/07/03 03:46:43;;;;;;;0.40;0.40;;;13.70;99.90;;;;;;5040713;28;20264;-81
2022/07/03 03:49:08;;;;;;;0.40;0.40;;;13.70;99.90;;;;;;5039849;28;20179;-81
2022/07/03 03:51:34;;;;;;;0.30;0.30;;;13.80;99.90;;;;;;5042516;28;20195;-81
2022/07/03 03:54:00;;;;;;;0.40;0.40;;;13.80;99.90;;;;;;5043901;28;20656;-80
2022/07/03 03:56:25;;;;;;;0.50;0.50;;;13.80;99.90;;;;;;5044298;28;20175;-81
2022/07/03 03:58:51;;;;;;;0.40;0.40;;;13.80;99.90;;;;;;5043793;28;20238;-83
2022/07/03 04:01:17;;;;;;;0.40;0.40;;;13.80;99.90;;;;;;5044018;28;20199;-80
2022/07/03 04:03:42;;;;;;;0.40;0.40;;;13.80;99.90;;;;;;5042488;28;20263;-81
2022/07/03 04:06:08;;;;;;;0.40;0.40;;;13.90;99.90;;;;;;5042612;28;20186;-82
2022/07/03 04:08:34;;;;;;;0.50;0.50;;;13.90;99.90;;;;;;5040224;28;20183;-80
2022/07/03 04:11:00;;;;;;;0.40;0.40;;;13.90;99.90;;;;;;5041117;28;20180;-81
2022/07/03 04:13:25;;;;;;;0.40;0.40;;;14.00;99.90;;;;;;5039785;28;20211;-81
2022/07/03 04:15:52;;;;;;;0.40;0.40;;;13.90;99.90;;;;;;5042365;28;20203;-80
2022/07/03 04:18:18;;;;;;;0.40;0.40;;;14.10;99.90;;;;;;5044259;28;20281;-81
2022/07/03 04:20:44;;;;;;;0.50;0.50;;;14.00;99.90;;;;;;5042678;28;20195;-81
2022/07/03 04:23:10;;;;;;;0.40;0.40;;;14.00;99.90;;;;;;5045327;28;20200;-79
2022/07/03 04:25:35;;;;;;;0.40;0.40;;;14.10;99.90;;;;;;5048679;28;20172;-80
2022/07/03 04:28:01;;;;;;;0.40;0.40;;;14.20;99.90;;;;;;5045717;28;20188;-81
2022/07/03 04:30:27;;;;;;;0.40;0.40;;;14.30;99.90;;;;;;5045520;28;20295;-81
2022/07/03 04:32:52;;;;;;;0.40;0.40;;;14.50;99.90;;;;;;5046059;28;20680;-82
2022/07/03 04:35:18;;;;;;;0.30;0.30;;;14.60;99.90;;;;;;5045246;28;20207;-82
2022/07/03 04:37:44;;;;;;;0.37;0.37;;;14.70;99.90;;;;;;5043106;28;20211;-80
2022/07/03 04:40:11;;;;;;;0.40;0.40;;;14.80;99.90;;;;;;5040996;28;20176;-82
2022/07/03 04:42:36;;;;;;;0.30;0.30;;;15.00;99.90;;;;;;5037605;28;20235;-82
2022/07/03 04:45:03;;;;;;;0.30;0.30;;;15.10;99.90;;;;;;5040534;28;20176;-82
2022/07/03 04:47:29;;;;;;;0.40;0.40;;;15.30;99.90;;;;;;5040307;28;20176;-82
2022/07/03 04:49:54;;;;;;;0.33;0.33;;;15.40;99.90;;;;;;5039469;28;20180;-81
2022/07/03 04:52:20;;;;;;;0.30;0.30;;;15.60;99.90;;;;;;5044376;28;20200;-82
2022/07/03 04:54:45;;;;;;;0.40;0.40;;;15.80;99.90;;;;;;5048165;28;20172;-81
2022/07/03 04:57:11;;;;;;;0.40;0.40;;;15.90;99.90;;;;;;5050143;28;20241;-82
2022/07/03 04:59:36;;;;;;;0.40;0.40;;;16.10;97.30;;;;;;5049206;28;20220;-82
2022/07/03 05:02:02;;;;;;;0.30;0.30;;;16.20;90.60;;;;;;5050341;28;20187;-83
2022/07/03 05:04:28;;;;;;;0.30;0.30;;;16.40;50.60;;;;;;5050306;28;20192;-82
2022/07/03 05:06:53;;;;;;;0.40;0.40;;;16.70;3.80;;;;;;5048023;28;20187;-82
2022/07/03 05:09:19;;;;;;;0.37;0.37;;;16.90;1.00;;;;;;5050804;28;20180;-81
2022/07/03 05:11:45;;;;;;;0.40;0.40;;;17.20;1.00;;;;;;5057968;28;20200;-84
2022/07/03 05:14:11;;;;;;;0.40;0.40;;;17.30;1.00;;;;;;5058720;28;20167;-83
2022/07/03 05:16:36;;;;;;;0.40;0.40;;;17.30;1.00;;;;;;5059080;28;20245;-85
2022/07/03 05:19:02;;;;;;;0.30;0.30;;;17.50;1.00;;;;;;5057237;28;20250;-82
2022/07/03 05:21:28;;;;;;;0.30;0.30;;;17.60;1.00;;;;;;5057209;28;20191;-83
2022/07/03 05:23:54;;;;;;;0.30;0.30;;;17.80;1.00;;;;;;5047887;28;20184;-82
2022/07/03 05:26:19;;;;;;;0.33;0.33;;;17.90;1.00;;;;;;5040665;28;20180;-82
2022/07/03 05:28:45;;;;;;;0.30;0.30;;;18.00;1.00;;;;;;5038610;28;20684;-82
2022/07/03 05:31:10;;;;;;;0.40;0.40;;;18.00;1.00;;;;;;5038523;28;20652;-81
2022/07/03 05:33:37;;;;;;;0.30;0.30;;;17.90;1.00;;;;;;5036814;28;20210;-80
2022/07/03 05:36:03;;;;;;;0.47;0.47;;;17.90;1.00;;;;;;5035538;28;20184;-80
2022/07/03 05:41:13;;;;;;;0.30;0.30;;;17.80;1.00;;;;;;5035165;28;20194;-81
2022/07/03 05:43:38;;;;;;;0.30;0.30;;;17.90;1.00;;;;;;5034868;28;20744;-80
2022/07/03 05:46:04;;;;;;;0.40;0.40;;;18.00;1.00;;;;;;5034847;28;20672;-81
2022/07/03 05:48:29;;;;;;;0.40;0.40;;;18.10;1.00;;;;;;5035891;28;20183;-81
2022/07/03 05:50:55;;;;;;;0.30;0.30;;;18.10;1.00;;;;;;5034802;28;20263;-81
2022/07/03 05:53:21;;;;;;;0.33;0.33;;;18.00;1.00;;;;;;5035161;28;20556;-81
2022/07/03 05:55:47;;;;;;;0.40;0.40;;;18.00;1.00;;;;;;5035300;28;20204;-82
2022/07/03 05:58:12;;;;;;;0.30;0.30;;;18.00;1.00;;;;;;5035008;28;20744;-81
2022/07/03 06:00:38;;;;;;;0.40;0.40;;;18.20;1.00;;;;;;5034724;28;20176;-81
2022/07/03 06:03:03;;;;;;;0.40;0.40;;;18.20;1.00;;;;;;5033107;28;20206;-81
2022/07/03 06:05:29;;;;;;;0.40;0.40;;;18.30;1.00;;;;;;5035476;28;20252;-85
2022/07/03 06:07:55;;;;;;;0.30;0.30;;;18.40;1.00;;;;;;5035557;28;20175;-80
2022/07/03 06:10:21;;;;;;;0.40;0.40;;;18.50;1.00;;;;;;5034517;28;20183;-81
2022/07/03 06:12:46;;;;;;;0.30;0.30;;;18.50;1.00;;;;;;5034854;28;20196;-80
2022/07/03 06:15:12;;;;;;;0.40;0.40;;;18.70;1.00;;;;;;5035567;28;20275;-81
2022/07/03 06:17:37;;;;;;;0.40;0.40;;;18.80;1.00;;;;;;5035454;28;20266;-80
2022/07/03 06:20:04;;;;;;;0.30;0.30;;;19.00;1.00;;;;;;5034656;28;20689;-81
2022/07/03 06:22:30;;;;;;;0.30;0.30;;;19.00;1.00;;;;;;5035183;28;20199;-80
2022/07/03 06:24:55;;;;;;;0.30;0.30;;;19.00;1.00;;;;;;5035404;28;20238;-81
2022/07/03 06:27:21;;;;;;;0.40;0.40;;;19.00;1.00;;;;;;5034759;28;20633;-81
2022/07/03 06:29:49;;;;;;;0.40;0.40;;;19.20;1.00;;;;;;5034463;28;20204;-81
2022/07/03 06:32:15;;;;;;;0.30;0.30;;;19.50;1.00;;;;;;5035896;28;20195;-80
2022/07/03 06:34:42;;;;;;;0.30;0.30;;;19.50;1.00;;;;;;5040212;28;20213;-80
2022/07/03 06:37:08;;;;;;;0.30;0.30;;;19.70;1.00;;;;;;5045969;28;20242;-80
2022/07/03 06:39:34;;;;;;;0.30;0.30;;;20.20;1.00;;;;;;5037958;28;20215;-80
2022/07/03 06:41:59;;;;;;;0.30;0.30;;;20.00;1.00;;;;;;5035581;28;20257;-80
2022/07/03 06:44:25;;;;;;;0.30;0.30;;;20.00;1.00;;;;;;5036293;28;20188;-81
2022/07/03 06:46:50;;;;;;;0.30;0.30;;;20.20;1.00;;;;;;5034846;28;20168;-80
2022/07/03 06:49:16;;;;;;;0.33;0.33;;;20.30;1.00;;;;;;5034433;28;20176;-80
2022/07/03 06:51:41;;;;;;;0.30;0.30;;;20.50;99.90;;;;;;5034343;28;20571;-80
2022/07/03 06:54:07;;;;;;;0.30;0.30;;;20.70;63.10;;;;;;5034587;28;20191;-82
2022/07/03 06:56:33;;;;;;;0.30;0.30;;;20.80;99.90;;;;;;5034893;28;20183;-80
2022/07/03 06:58:58;;;;;;;0.30;0.30;;;21.00;1.00;;;;;;5034525;28;20216;-80
2022/07/03 07:01:24;;;;;;;0.30;0.30;;;21.20;99.90;;;;;;5034496;28;20179;-81
2022/07/03 07:03:49;;;;;;;0.30;0.30;;;21.20;1.00;;;;;;5034844;28;20176;-80
2022/07/03 07:06:15;;;;;;;0.30;0.30;;;21.30;63.20;;;;;;5034802;28;20641;-81
2022/07/03 07:08:40;;;;;;;0.30;0.30;;;21.50;99.90;;;;;;5034794;28;20230;-81
2022/07/03 07:11:06;;;;;;;0.30;0.30;;;21.60;1.00;;;;;;5033848;28;20180;-80
2022/07/03 07:13:31;;;;;;;0.23;0.23;;;21.70;1.00;;;;;;5034822;28;20573;-80
2022/07/03 07:15:57;;;;;;;0.30;0.30;;;21.90;1.00;;;;;;5036542;28;20225;-80
2022/07/03 07:18:22;;;;;;;0.30;0.30;;;22.00;99.90;;;;;;5033419;28;20215;-80
2022/07/03 07:20:48;;;;;;;0.30;0.30;;;22.10;1.00;;;;;;5032620;28;20293;-81
2022/07/03 07:23:13;;;;;;;0.30;0.30;;;22.20;1.00;;;;;;5033433;28;20203;-81
2022/07/03 07:25:39;;;;;;;0.40;0.40;;;22.40;1.00;;;;;;5033644;28;20182;-81
2022/07/03 07:28:04;;;;;;;0.30;0.30;;;22.50;1.00;;;;;;5032641;28;20179;-81
2022/07/03 07:30:30;;;;;;;0.27;0.27;;;22.70;1.00;;;;;;5032297;28;20198;-82
2022/07/03 07:32:55;;;;;;;0.30;0.30;;;22.70;99.90;;;;;;5032281;28;20203;-81
2022/07/03 07:35:21;;;;;;;0.40;0.40;;;22.80;99.90;;;;;;5033042;28;20180;-83
2022/07/03 07:37:48;;;;;;;0.20;0.20;;;22.90;99.90;;;;;;5033049;28;20214;-80
2022/07/03 07:40:13;;;;;;;0.33;0.33;;;23.10;99.90;;;;;;5032181;28;20616;-80
2022/07/03 07:42:39;;;;;;;0.30;0.30;;;23.20;99.90;;;;;;5033203;28;20192;-80
2022/07/03 07:45:05;;;;;;;0.30;0.30;;;23.50;99.90;;;;;;5033727;28;20172;-81
2022/07/03 07:47:31;;;;;;;0.40;0.40;;;23.80;99.90;;;;;;5033344;28;20172;-81
2022/07/03 07:49:56;;;;;;;0.30;0.30;;;24.10;3.80;;;;;;5032739;28;20168;-81
2022/07/03 07:52:24;;;;;;;0.20;0.20;;;24.50;1.00;;;;;;5032896;28;20310;-81
2022/07/03 07:54:49;;;;;;;0.30;0.30;;;25.20;1.00;;;;;;5033134;28;20223;-81
2022/07/03 07:57:15;;;;;;;0.30;0.30;;;25.30;1.00;;;;;;5035615;28;20551;-81
2022/07/03 07:59:41;;;;;;;0.30;0.30;;;25.60;1.00;;;;;;5032059;28;20212;-80
2022/07/03 08:07:35;;;;;;;0.47;0.47;;;26.60;1.00;;;;;;5033117;28;20183;-80
2022/07/03 08:10:00;;;;;;;0.40;0.40;;;27.20;1.00;;;;;;5033497;28;20176;-81
2022/07/03 08:12:26;;;;;;;0.40;0.40;;;27.50;1.00;;;;;;5036606;28;20558;-82
2022/07/03 08:14:51;;;;;;;0.50;0.50;;;27.80;1.00;;;;;;5033321;28;20236;-82
2022/07/03 08:17:17;;;;;;;0.50;0.50;;;28.10;1.00;;;;;;5034042;28;20471;-81
2022/07/03 08:19:42;;;;;;;0.60;0.60;;;28.40;1.00;;;;;;5032121;28;20211;-81
2022/07/03 08:22:08;;;;;;;0.33;0.33;;;28.40;1.00;;;;;;5027010;28;20206;-80
2022/07/03 08:24:33;;;;;;;0.40;0.40;;;28.40;1.00;;;;;;5031766;28;20418;-79
2022/07/03 08:26:59;;;;;;;0.40;0.40;;;28.00;1.00;;;;;;5032122;28;20182;-81
2022/07/03 08:29:25;;;;;;;0.40;0.40;;;27.90;1.00;;;;;;5032087;28;20191;-83
2022/07/03 08:31:50;;;;;;;0.40;0.40;;;28.00;1.00;;;;;;5031209;28;20215;-81
2022/07/03 08:34:16;;;;;;;0.40;0.40;;;28.20;1.00;;;;;;5032620;28;20191;-82
2022/07/03 08:36:42;;;;;;;0.50;0.50;;;28.50;1.00;;;;;;5031524;28;20187;-81
2022/07/03 08:39:09;;;;;;;0.30;0.30;;;28.50;1.00;;;;;;5032511;28;20306;-82
2022/07/03 08:41:38;;;;;;;0.40;0.40;;;28.70;1.00;;;;;;5033258;28;20242;-82
2022/07/03 08:44:04;;;;;;;0.40;0.40;;;28.80;1.00;;;;;;5035848;28;20176;-82
2022/07/03 08:46:32;;;;;;;0.40;0.40;;;29.00;1.00;;;;;;5036593;28;20186;-81
2022/07/03 08:49:00;;;;;;;0.50;0.50;;;29.20;1.00;;;;;;5036586;28;20259;-82
2022/07/03 08:51:26;;;;;;;0.50;0.50;;;28.80;1.00;;;;;;5019619;28;20653;-80
2022/07/03 08:53:54;;;;;;;0.40;0.40;;;28.70;1.00;;;;;;5036575;28;20191;-80
2022/07/03 08:56:21;;;;;;;0.50;0.50;;;28.70;1.00;;;;;;5038266;28;20176;-81
2022/07/03 08:58:48;;;;;;;0.40;0.40;;;28.80;1.00;;;;;;5038223;28;20503;-80
2022/07/03 09:01:18;;;;;;;0.40;0.40;;;28.60;1.00;;;;;;5039850;28;20251;-79
2022/07/03 09:03:45;;;;;;;0.40;0.40;;;28.70;1.00;;;;;;5036207;28;20182;-80
2022/07/03 09:06:13;;;;;;;0.50;0.50;;;28.90;1.00;;;;;;5042278;28;20179;-79
2022/07/03 09:08:39;;;;;;;0.40;0.40;;;29.00;1.00;;;;;;5040443;28;20606;-77
2022/07/03 09:11:05;;;;;;;0.50;0.50;;;29.20;1.00;;;;;;5039267;28;20214;-78
2022/07/03 09:13:30;;;;;;;0.50;0.50;;;29.60;1.00;;;;;;5040669;28;20196;-79
2022/07/03 09:15:56;;;;;;;0.40;0.40;;;29.60;1.00;;;;;;5039159;28;20341;-79
2022/07/03 09:18:39;;;;;;;0.50;0.50;;;29.50;1.00;;;;;;5036791;28;20223;-80
2022/07/03 09:21:05;;;;;;;0.30;0.30;;;29.20;1.00;;;;;;5035944;28;20230;-80
2022/07/03 09:23:39;;;;;;;0.50;0.50;;;29.00;1.00;;;;;;5036819;28;20398;-78
2022/07/03 09:26:06;;;;;;;0.40;0.40;;;29.00;1.00;;;;;;5036215;28;20198;-79
2022/07/03 09:28:55;;;;;;;0.50;0.50;;;29.50;1.00;;;;;;5037168;28;20191;-79
2022/07/03 09:31:24;;;;;;;0.53;0.53;;;30.10;1.00;;;;;;5035964;28;20657;-79
2022/07/03 09:33:58;;;;;;;0.40;0.40;;;30.40;1.00;;;;;;5036199;28;20183;-79
2022/07/03 09:36:47;;;;;;;0.70;0.70;;;30.60;1.00;;;;;;5036743;28;20183;-79
2022/07/03 09:39:31;;;;;;;0.50;0.50;;;30.60;1.00;;;;;;5044244;28;20694;-84
2022/07/03 09:42:02;;;;;;;0.70;0.70;;;30.50;1.00;;;;;;5056891;28;20203;-80
2022/07/03 09:44:42;;;;;;;0.50;0.50;;;30.50;1.00;;;;;;5056269;28;20175;-78
2022/07/03 09:47:15;;;;;;;0.50;0.50;;;30.40;1.00;;;;;;5055023;28;20186;-78
2022/07/03 09:49:56;;;;;;;0.50;0.50;;;30.40;1.00;;;;;;5054185;28;20178;-78
2022/07/03 09:52:27;;;;;;;0.70;0.70;;;30.70;1.00;;;;;;5054923;28;20194;-79
2022/07/03 09:54:52;;;;;;;0.60;0.60;;;31.20;1.00;;;;;;5054220;28;20544;-79
2022/07/03 09:57:18;;;;;;;0.60;0.60;;;31.20;1.00;;;;;;5056202;28;20225;-77
2022/07/03 09:59:44;;;;;;;0.57;0.57;;;30.80;1.00;;;;;;5043785;28;20204;-82
2022/07/03 10:02:10;;;;;;;0.60;0.60;;;30.40;1.00;;;;;;5034965;28;20199;-82
2022/07/03 10:04:35;;;;;;;0.60;0.60;;;30.70;1.00;;;;;;5034996;28;20252;-82
2022/07/03 10:07:03;;;;;;;0.60;0.60;;;30.70;1.00;;;;;;5035042;28;20187;-83
2022/07/03 10:09:30;;;;;;;0.50;0.50;;;31.00;1.00;;;;;;5034351;28;20364;-82
2022/07/03 10:11:57;;;;;;;0.40;0.40;;;31.40;1.00;;;;;;5034700;28;20196;-81
2022/07/03 10:14:27;;;;;;;0.63;0.63;;;31.60;1.00;;;;;;5035285;28;20176;-81
2022/07/03 10:16:55;;;;;;;0.50;0.50;;;31.50;1.00;;;;;;5034746;28;20187;-83
2022/07/03 10:19:23;;;;;;;0.50;0.50;;;30.90;1.00;;;;;;5028145;28;20214;-81
2022/07/03 10:21:54;;;;;;;0.50;0.50;;;30.80;1.00;;;;;;5027918;28;20204;-82
2022/07/03 10:24:27;;;;;;;0.40;0.40;;;30.80;1.00;;;;;;5033136;28;20215;-86
2022/07/03 10:26:54;;;;;;;0.60;0.60;;;31.10;1.00;;;;;;5028621;28;20567;-82
2022/07/03 10:29:22;;;;;;;0.50;0.50;;;31.70;1.00;;;;;;5016497;28;20200;-82
2022/07/03 10:31:48;;;;;;;0.50;0.50;;;31.80;1.00;;;;;;5016691;28;20196;-81
2022/07/03 10:34:19;;;;;;;0.60;0.60;;;31.30;1.00;;;;;;5015000;28;20271;-80
2022/07/03 10:36:46;;;;;;;0.47;0.47;;;31.40;1.00;;;;;;5020401;28;20187;-84
2022/07/03 10:39:36;;;;;;;0.60;0.60;;;31.40;1.00;;;;;;5036796;28;20275;-81
2022/07/03 10:45:09;;;;;;;0.60;0.60;;;31.60;1.00;;;;;;5015398;28;20187;-81
2022/07/03 10:47:46;;;;;;;0.60;0.60;;;32.00;1.00;;;;;;5037293;28;20176;-81
2022/07/03 10:50:20;;;;;;;0.60;0.60;;;32.30;1.00;;;;;;5036825;28;20176;-83
2022/07/03 10:52:46;;;;;;;0.50;0.50;;;32.70;1.00;;;;;;5037749;28;20196;-82
2022/07/03 10:55:14;;;;;;;0.50;0.50;;;33.00;1.00;;;;;;5035181;28;20198;-82
2022/07/03 10:57:41;;;;;;;0.60;0.60;;;33.10;1.00;;;;;;5039138;28;20176;-83
2022/07/03 11:00:18;;;;;;;0.60;0.60;;;33.20;1.00;;;;;;5039180;28;20175;-81
2022/07/03 11:02:46;;;;;;;0.40;0.40;;;32.80;1.00;;;;;;5036011;28;20199;-82
2022/07/03 11:05:20;;;;;;;0.52;0.52;;;32.60;1.00;;;;;;5039233;28;20195;-81
2022/07/03 11:07:53;;;;;;;0.40;0.40;;;32.70;1.00;;;;;;5038676;28;20202;-81
2022/07/03 11:10:18;;;;;;;0.63;0.63;;;32.50;1.00;;;;;;5038748;28;20168;-81
2022/07/03 11:12:55;;;;;;;0.40;0.40;;;32.60;1.00;;;;;;5039741;28;20199;-84
2022/07/03 11:15:26;;;;;;;0.50;0.50;;;32.80;1.00;;;;;;5040633;28;20172;-82
2022/07/03 11:18:13;;;;;;;0.32;0.32;;;32.90;1.00;;;;;;5038646;28;20645;-81
2022/07/03 11:20:41;;;;;;;0.60;0.60;;;33.20;1.00;;;;;;5039116;28;20528;-82
2022/07/03 11:23:23;;;;;;;0.50;0.50;;;33.00;1.00;;;;;;5039277;28;20217;-81
2022/07/03 11:25:50;;;;;;;0.40;0.40;;;32.70;1.00;;;;;;5044735;28;20167;-80
2022/07/03 11:28:34;;;;;;;0.40;0.40;;;32.60;1.00;;;;;;5060021;28;20270;-81
2022/07/03 11:31:11;;;;;;;0.60;0.60;;;32.60;1.00;;;;;;5056436;28;20628;-84
2022/07/03 11:33:51;;;;;;;0.40;0.40;;;32.50;1.00;;;;;;5055633;28;20259;-85
2022/07/03 11:36:16;;;;;;;0.43;0.43;;;32.70;1.00;;;;;;5056742;28;20183;-85
2022/07/03 11:39:08;;;;;;;0.30;0.30;;;32.60;1.00;;;;;;5058061;28;20639;-85
2022/07/03 11:41:36;;;;;;;0.43;0.43;;;32.80;1.00;;;;;;5054616;28;20203;-83
2022/07/03 11:44:07;;;;;;;0.50;0.50;;;32.80;1.00;;;;;;5058229;28;20199;-86
2022/07/03 11:46:36;;;;;;;0.60;0.60;;;32.00;1.00;;;;;;5054559;28;20206;-84
2022/07/03 11:49:04;;;;;;;0.50;0.50;;;31.60;1.00;;;;;;5055910;28;20207;-84
2022/07/03 11:51:29;;;;;;;0.50;0.50;;;31.50;1.00;;;;;;5055178;28;20164;-85
2022/07/03 11:53:55;;;;;;;0.50;0.50;;;31.40;1.00;;;;;;5050943;28;20198;-86
2022/07/03 11:56:21;;;;;;;0.70;0.70;;;31.20;1.00;;;;;;5026067;28;20619;-83
2022/07/03 11:58:54;;;;;;;0.50;0.50;;;31.30;1.00;;;;;;5023304;28;20204;-84
2022/07/03 12:01:26;;;;;;;0.43;0.43;;;31.10;1.00;;;;;;5028693;28;20216;-84
2022/07/03 12:03:53;;;;;;;0.60;0.60;;;30.90;1.00;;;;;;5018314;28;20687;-84
2022/07/03 12:06:19;;;;;;;0.43;0.43;;;31.10;1.00;;;;;;5033725;28;20179;-84
2022/07/03 12:08:46;;;;;;;0.60;0.60;;;31.10;1.00;;;;;;5034862;28;20187;-82
2022/07/03 12:11:14;;;;;;;0.50;0.50;;;31.30;1.00;;;;;;5032704;28;20207;-83
2022/07/03 12:13:39;;;;;;;0.53;0.53;;;31.20;1.00;;;;;;5033534;28;20591;-84
2022/07/03 12:16:32;;;;;;;0.50;0.50;;;31.00;1.00;;;;;;5034135;28;20226;-84
2022/07/03 12:19:06;;;;;;;0.43;0.43;;;30.60;1.00;;;;;;5037928;28;20203;-83
2022/07/03 12:21:39;;;;;;;0.50;0.50;;;30.60;1.00;;;;;;5037613;28;20175;-82
2022/07/03 12:24:12;;;;;;;0.60;0.60;;;30.90;1.00;;;;;;5041070;28;20180;-83
2022/07/03 12:26:39;;;;;;;0.60;0.60;;;30.80;1.00;;;;;;5054992;28;20199;-87
2022/07/03 12:29:09;;;;;;;0.43;0.43;;;30.70;1.00;;;;;;5055826;28;20214;-86
2022/07/03 12:31:38;;;;;;;0.53;0.53;;;30.50;1.00;;;;;;5047976;28;20211;-83
2022/07/03 12:34:04;;;;;;;0.40;0.40;;;30.50;1.00;;;;;;5036108;28;20176;-83
2022/07/03 12:36:29;;;;;;;0.57;0.57;;;30.60;1.00;;;;;;5037135;28;20266;-84
2022/07/03 12:38:56;;;;;;;0.53;0.53;;;31.10;1.00;;;;;;5037820;28;20219;-86
2022/07/03 12:41:24;;;;;;;0.60;0.60;;;31.30;1.00;;;;;;5038479;28;20180;-84
2022/07/03 12:43:50;;;;;;;0.50;0.50;;;31.60;1.00;;;;;;5038159;28;20184;-84
2022/07/03 12:46:26;;;;;;;0.60;0.60;;;31.60;1.00;;;;;;5038230;28;20226;-83
2022/07/03 12:48:56;;;;;;;0.60;0.60;;;31.60;1.00;;;;;;5036911;28;20531;-85
2022/07/03 12:51:44;;;;;;;0.63;0.63;;;31.40;1.00;;;;;;5039536;28;20657;-84
2022/07/03 12:54:33;;;;;;;0.60;0.60;;;31.60;1.00;;;;;;5037643;28;20175;-84
2022/07/03 13:00:01;;;;;;;0.50;0.50;;;31.20;1.00;;;;;;5036461;28;20656;-83
2022/07/03 13:02:27;;;;;;;0.50;0.50;;;31.10;1.00;;;;;;5036318;28;20200;-85
2022/07/03 13:04:53;;;;;;;0.50;0.50;;;31.00;1.00;;;;;;5036426;28;20550;-83
2022/07/03 13:07:18;;;;;;;0.53;0.53;;;31.00;1.00;;;;;;5036354;28;20225;-82
2022/07/03 13:09:52;;;;;;;0.60;0.60;;;31.10;1.00;;;;;;5036274;28;20175;-83
2022/07/03 13:12:22;;;;;;;0.40;0.40;;;31.20;1.00;;;;;;5040500;28;20196;-82
2022/07/03 13:15:01;;;;;;;0.50;0.50;;;31.60;1.00;;;;;;5037192;28;20179;-83
2022/07/03 13:17:57;;;;;;;0.40;0.40;;;31.60;1.00;;;;;;5035171;28;20645;-82